Time;durP1;ratioP1;P1;durP2;ratioP2;P2;SDS_P1;SDS_P2;PMS_P1;PMS_P2;Temp;Humidity;BMP_temperature;BMP_pressure;BME280_temperature;BME280_humidity;BME280_pressure;Samples;Min_cycle;Max_cycle;Signal;HPM_P1;HPM_P2
2021/10/02 00:41:20;;;;;;;9.27;4.95;;;13.60;99.90;;;;;;5060830;28;20040;-92
2021/10/02 00:46:31;;;;;;;6.43;5.05;;;13.60;99.90;;;;;;5058389;28;20040;-92
2021/10/02 00:48:57;;;;;;;10.23;5.25;;;13.50;99.90;;;;;;5040073;28;20029;-90
2021/10/02 00:51:23;;;;;;;6.68;4.32;;;13.50;99.90;;;;;;5040308;28;20056;-91
2021/10/02 00:53:49;;;;;;;7.50;4.90;;;13.50;99.90;;;;;;5039185;28;20025;-90
2021/10/02 00:56:15;;;;;;;7.35;4.72;;;13.50;99.90;;;;;;5039579;28;20110;-90
2021/10/02 00:58:45;;;;;;;8.45;5.10;;;13.50;99.90;;;;;;5039134;28;20031;-91
2021/10/02 01:01:15;;;;;;;11.85;4.50;;;13.40;99.90;;;;;;5040532;28;20017;-93
2021/10/02 01:03:56;;;;;;;6.82;4.40;;;13.50;99.90;;;;;;5041610;28;20131;-91
2021/10/02 01:07:02;;;;;;;6.30;4.45;;;13.60;99.90;;;;;;5062155;28;20129;-91
2021/10/02 01:09:46;;;;;;;7.03;4.75;;;13.50;99.90;;;;;;5042496;28;20025;-90
2021/10/02 01:12:20;;;;;;;7.00;4.28;;;13.40;99.90;;;;;;5042175;28;20043;-90
2021/10/02 01:14:55;;;;;;;8.85;4.88;;;13.60;99.90;;;;;;5042548;28;20025;-91
2021/10/02 01:17:40;;;;;;;7.65;4.57;;;13.60;99.90;;;;;;5043813;28;20025;-92
2021/10/02 01:20:10;;;;;;;10.70;4.45;;;13.60;99.90;;;;;;5042642;28;20036;-91
2021/10/02 01:23:12;;;;;;;10.82;4.88;;;13.70;99.90;;;;;;5042923;28;20017;-91
2021/10/02 01:26:05;;;;;;;9.02;4.82;;;13.50;99.90;;;;;;5059572;28;20029;-90
2021/10/02 01:28:35;;;;;;;6.95;4.20;;;13.40;99.90;;;;;;5041807;28;20029;-90
2021/10/02 01:31:21;;;;;;;14.25;4.40;;;13.40;99.90;;;;;;5042266;28;20025;-91
2021/10/02 01:36:42;;;;;;;7.80;4.50;;;13.30;99.90;;;;;;5065629;28;20033;-91
2021/10/02 01:47:37;;;;;;;6.05;3.72;;;13.20;99.90;;;;;;5050779;28;20032;-91
2021/10/02 01:50:05;;;;;;;6.82;4.22;;;13.20;99.90;;;;;;5043494;28;20094;-91
2021/10/02 01:52:35;;;;;;;7.72;3.88;;;13.10;99.90;;;;;;5042553;28;20028;-91
2021/10/02 01:55:01;;;;;;;7.05;4.20;;;13.20;99.90;;;;;;5040935;28;20511;-92
2021/10/02 01:57:34;;;;;;;6.07;4.38;;;13.30;99.90;;;;;;5041024;28;20025;-91
2021/10/02 02:00:06;;;;;;;7.20;4.55;;;13.40;99.90;;;;;;5040864;28;20490;-91
2021/10/02 02:02:34;;;;;;;5.43;4.30;;;13.40;99.90;;;;;;5040447;28;20051;-89
2021/10/02 02:05:05;;;;;;;7.22;4.30;;;13.50;99.90;;;;;;5039453;28;20025;-90
2021/10/02 02:07:35;;;;;;;8.27;4.32;;;13.50;99.90;;;;;;5039364;28;20027;-91
2021/10/02 02:10:03;;;;;;;6.32;4.43;;;13.40;99.90;;;;;;5039478;28;20104;-91
2021/10/02 02:12:32;;;;;;;5.05;3.88;;;13.60;99.90;;;;;;5039679;28;20052;-92
2021/10/02 02:15:10;;;;;;;5.07;3.75;;;13.70;99.90;;;;;;5039974;28;20051;-91
2021/10/02 02:17:46;;;;;;;5.22;4.28;;;13.90;99.90;;;;;;5040241;28;20021;-90
2021/10/02 02:20:21;;;;;;;5.30;4.40;;;13.70;99.90;;;;;;5039756;28;20043;-91
2021/10/02 02:22:48;;;;;;;6.20;3.83;;;13.60;99.90;;;;;;5039808;28;20487;-89
2021/10/02 02:25:14;;;;;;;5.32;4.40;;;13.80;99.90;;;;;;5039600;28;20477;-90
2021/10/02 02:27:40;;;;;;;5.53;4.05;;;13.90;99.90;;;;;;5039312;28;20025;-90
2021/10/02 02:30:06;;;;;;;6.65;4.00;;;14.00;99.90;;;;;;5039644;28;20024;-90
2021/10/02 02:32:33;;;;;;;6.25;4.57;;;13.90;99.90;;;;;;5039169;28;20032;-91
2021/10/02 02:34:59;;;;;;;7.43;4.57;;;13.70;99.90;;;;;;5039759;28;20484;-91
2021/10/02 02:37:25;;;;;;;8.00;4.28;;;13.60;99.90;;;;;;5038826;28;20105;-91
2021/10/02 02:39:51;;;;;;;7.05;4.10;;;13.40;99.90;;;;;;5039053;28;20025;-90
2021/10/02 02:42:17;;;;;;;7.75;4.60;;;13.50;99.90;;;;;;5038404;28;20036;-91
2021/10/02 02:44:43;;;;;;;5.90;4.03;;;13.40;99.90;;;;;;5038454;28;20401;-91
2021/10/02 02:47:15;;;;;;;5.70;4.13;;;13.20;99.90;;;;;;5038515;28;20112;-91
2021/10/02 02:50:06;;;;;;;9.35;4.72;;;13.40;99.90;;;;;;5056311;28;20024;-90
2021/10/02 02:52:50;;;;;;;9.48;4.10;;;13.50;99.90;;;;;;5038219;28;20025;-90
2021/10/02 02:55:20;;;;;;;4.85;4.20;;;13.20;99.90;;;;;;5037903;28;20025;-91
2021/10/02 02:57:52;;;;;;;6.20;4.60;;;13.30;99.90;;;;;;5038090;28;20025;-91
2021/10/02 03:00:20;;;;;;;7.63;3.70;;;13.20;99.90;;;;;;5038442;28;20468;-89
2021/10/02 03:03:01;;;;;;;6.80;4.00;;;13.30;99.90;;;;;;5039014;28;20031;-90
2021/10/02 03:05:29;;;;;;;7.25;4.57;;;13.60;99.90;;;;;;5039492;28;20036;-91
2021/10/02 03:08:06;;;;;;;4.97;3.80;;;13.50;99.90;;;;;;5039778;28;20476;-92
2021/10/02 03:10:33;;;;;;;5.40;3.70;;;13.40;99.90;;;;;;5039914;28;20025;-90
2021/10/02 03:13:06;;;;;;;6.80;4.00;;;13.70;99.90;;;;;;5039594;28;20479;-90
2021/10/02 03:15:33;;;;;;;4.85;4.20;;;13.80;99.90;;;;;;5039437;28;20056;-90
2021/10/02 03:18:00;;;;;;;8.20;4.30;;;13.80;99.90;;;;;;5039104;28;20024;-89
2021/10/02 03:20:28;;;;;;;6.00;4.20;;;13.70;99.90;;;;;;5039408;28;20025;-90
2021/10/02 03:22:55;;;;;;;6.00;4.55;;;13.60;99.90;;;;;;5038933;28;20056;-90
2021/10/02 03:25:28;;;;;;;5.18;3.85;;;13.70;99.90;;;;;;5038849;28;20032;-89
2021/10/02 03:27:56;;;;;;;6.65;4.13;;;13.70;99.90;;;;;;5038701;28;20021;-90
2021/10/02 03:30:24;;;;;;;5.32;3.88;;;13.80;99.90;;;;;;5038712;28;20496;-90
2021/10/02 03:32:52;;;;;;;5.32;4.32;;;13.70;99.90;;;;;;5037973;28;20087;-90
2021/10/02 03:35:19;;;;;;;6.90;4.38;;;13.50;99.90;;;;;;5037920;28;20545;-91
2021/10/02 03:37:45;;;;;;;6.35;4.50;;;13.40;99.90;;;;;;5038349;28;20051;-89
2021/10/02 03:40:11;;;;;;;4.68;3.85;;;13.20;99.90;;;;;;5038485;28;20050;-91
2021/10/02 03:42:48;;;;;;;6.72;3.92;;;13.20;99.90;;;;;;5038888;28;20032;-89
2021/10/02 03:45:16;;;;;;;5.90;4.45;;;13.10;99.90;;;;;;5038427;28;20049;-90
2021/10/02 03:47:42;;;;;;;5.90;4.22;;;13.20;99.90;;;;;;5039397;28;20032;-90
2021/10/02 03:50:09;;;;;;;9.70;4.30;;;13.10;99.90;;;;;;5042249;28;20025;-89
2021/10/02 03:52:35;;;;;;;7.95;4.28;;;13.10;99.90;;;;;;5041033;28;20025;-90
2021/10/02 03:55:00;;;;;;;7.72;4.55;;;13.20;99.90;;;;;;5047264;28;20025;-90
2021/10/02 03:57:27;;;;;;;6.28;4.03;;;13.20;99.90;;;;;;5054209;28;20556;-91
2021/10/02 03:59:52;;;;;;;9.07;4.63;;;13.10;99.90;;;;;;5047456;28;20021;-90
2021/10/02 04:02:18;;;;;;;7.53;4.55;;;13.20;99.90;;;;;;5040540;28;20097;-90
2021/10/02 04:04:44;;;;;;;6.97;4.82;;;13.10;99.90;;;;;;5039173;28;20025;-89
2021/10/02 04:07:10;;;;;;;5.40;4.05;;;12.90;99.90;;;;;;5038722;28;20031;-89
2021/10/02 04:09:35;;;;;;;6.45;4.00;;;13.00;99.90;;;;;;5037988;28;20036;-90
2021/10/02 04:12:01;;;;;;;5.43;4.45;;;13.10;99.90;;;;;;5038998;28;20025;-90
2021/10/02 04:14:27;;;;;;;6.10;4.00;;;13.20;99.90;;;;;;5039034;28;20025;-90
2021/10/02 04:16:53;;;;;;;8.82;4.40;;;13.20;99.90;;;;;;5039564;28;20025;-89
2021/10/02 04:19:19;;;;;;;8.30;3.90;;;13.30;99.90;;;;;;5039208;28;20021;-90
2021/10/02 04:21:45;;;;;;;5.65;4.28;;;13.40;99.90;;;;;;5038406;28;20090;-90
2021/10/02 04:24:11;;;;;;;5.82;4.07;;;13.30;99.90;;;;;;5038490;28;20025;-91
2021/10/02 04:26:37;;;;;;;6.82;4.28;;;13.20;99.90;;;;;;5038824;28;20402;-90
2021/10/02 04:29:03;;;;;;;4.55;3.55;;;13.30;99.90;;;;;;5038606;28;20021;-90
2021/10/02 04:31:29;;;;;;;5.47;3.65;;;13.30;99.90;;;;;;5039304;28;20074;-90
2021/10/02 04:33:55;;;;;;;8.60;4.10;;;13.30;99.90;;;;;;5037722;28;20021;-90
2021/10/02 04:36:20;;;;;;;4.82;3.90;;;13.40;99.90;;;;;;5038273;28;20036;-89
2021/10/02 04:38:46;;;;;;;7.40;4.10;;;13.30;99.90;;;;;;5041349;28;20396;-90
2021/10/02 04:41:12;;;;;;;5.55;4.00;;;13.10;99.90;;;;;;5041329;28;20021;-89
2021/10/02 04:43:44;;;;;;;5.35;4.00;;;13.10;99.90;;;;;;5039816;28;20497;-90
2021/10/02 04:46:11;;;;;;;4.78;3.83;;;13.10;99.90;;;;;;5043015;28;20029;-89
2021/10/02 04:48:38;;;;;;;5.38;4.20;;;13.10;99.90;;;;;;5042713;28;20029;-89
2021/10/02 04:51:05;;;;;;;5.82;4.10;;;13.10;99.90;;;;;;5026721;28;20039;-91
2021/10/02 04:53:31;;;;;;;6.05;4.13;;;13.10;99.90;;;;;;5043295;28;20036;-91
2021/10/02 04:56:00;;;;;;;7.15;4.15;;;13.10;99.90;;;;;;5042641;28;20476;-89
2021/10/02 04:58:27;;;;;;;5.53;3.85;;;13.00;99.90;;;;;;5041816;28;20025;-90
2021/10/02 05:00:52;;;;;;;5.68;4.30;;;13.10;99.90;;;;;;5059181;28;20025;-89
2021/10/02 05:03:18;;;;;;;5.40;3.80;;;13.30;99.90;;;;;;5041713;28;20036;-89
2021/10/02 05:05:44;;;;;;;5.35;3.92;;;13.40;99.90;;;;;;5040974;28;20083;-89
2021/10/02 05:08:10;;;;;;;5.15;4.00;;;13.30;99.90;;;;;;5041411;28;20155;-89
2021/10/02 05:10:35;;;;;;;5.50;3.80;;;13.30;99.90;;;;;;5041519;28;20106;-90
2021/10/02 05:13:01;;;;;;;6.45;4.55;;;13.10;99.90;;;;;;5041600;28;20606;-90
2021/10/02 05:15:27;;;;;;;9.93;4.65;;;13.00;99.90;;;;;;5041494;28;20051;-89
2021/10/02 05:17:52;;;;;;;4.82;3.88;;;13.00;99.90;;;;;;5059392;28;20461;-92
2021/10/02 05:20:18;;;;;;;6.93;4.32;;;13.00;99.90;;;;;;5041293;28;20029;-90
2021/10/02 05:22:44;;;;;;;5.82;3.90;;;13.10;99.90;;;;;;5040909;28;20503;-90
2021/10/02 05:25:10;;;;;;;8.70;3.72;;;13.00;99.90;;;;;;5041792;28;20021;-90
2021/10/02 05:27:35;;;;;;;5.13;3.88;;;13.10;99.90;;;;;;5041560;28;20029;-91
2021/10/02 05:30:01;;;;;;;6.45;4.13;;;13.10;99.90;;;;;;5041415;28;20027;-90
2021/10/02 05:32:27;;;;;;;5.10;3.70;;;13.10;99.90;;;;;;5043264;28;20135;-90
2021/10/02 05:34:53;;;;;;;5.18;3.70;;;13.20;99.90;;;;;;5044247;28;20480;-90
2021/10/02 05:37:18;;;;;;;6.15;3.70;;;13.30;99.90;;;;;;5048151;28;20021;-92
2021/10/02 05:39:44;;;;;;;6.28;4.00;;;13.40;99.90;;;;;;5047567;28;20051;-92
2021/10/02 05:42:10;;;;;;;5.95;4.40;;;13.50;99.90;;;;;;5047033;28;20100;-91
2021/10/02 05:44:36;;;;;;;4.13;3.50;;;13.30;99.90;;;;;;5047561;28;20052;-90
2021/10/02 05:47:02;;;;;;;6.95;4.45;;;13.30;99.90;;;;;;5048789;28;20025;-90
2021/10/02 05:49:28;;;;;;;7.85;4.20;;;13.40;99.90;;;;;;5047271;28;20021;-91
2021/10/02 05:51:53;;;;;;;12.88;4.05;;;13.30;99.90;;;;;;5047023;28;20025;-90
2021/10/02 05:54:19;;;;;;;7.22;3.90;;;13.30;99.90;;;;;;5047510;28;20522;-91
2021/10/02 05:56:45;;;;;;;6.28;4.10;;;13.30;99.90;;;;;;5047233;28;20036;-90
2021/10/02 05:59:11;;;;;;;7.78;4.20;;;13.40;99.90;;;;;;5049678;28;20025;-91
2021/10/02 06:01:36;;;;;;;4.97;4.13;;;13.50;99.90;;;;;;5051779;28;20503;-90
2021/10/02 06:04:02;;;;;;;7.10;4.60;;;13.50;99.90;;;;;;5055778;28;20017;-91
2021/10/02 06:06:28;;;;;;;6.85;4.43;;;13.50;99.90;;;;;;5040431;28;20033;-91
2021/10/02 06:08:54;;;;;;;5.60;4.35;;;13.70;99.90;;;;;;5058748;28;20033;-91
2021/10/02 06:11:20;;;;;;;8.00;5.05;;;13.90;99.90;;;;;;5058435;28;20044;-91
2021/10/02 06:13:47;;;;;;;7.68;4.22;;;14.00;99.90;;;;;;5051986;28;20071;-91
2021/10/02 06:16:13;;;;;;;6.47;4.68;;;13.80;99.90;;;;;;5046479;28;20025;-91
2021/10/02 06:18:39;;;;;;;6.95;4.10;;;13.70;99.90;;;;;;5044702;28;20021;-91
2021/10/02 06:21:10;;;;;;;6.43;4.18;;;13.80;99.90;;;;;;5043971;28;20028;-90
2021/10/02 06:23:39;;;;;;;6.95;4.18;;;14.00;99.90;;;;;;5045892;28;20027;-91
2021/10/02 06:26:05;;;;;;;7.68;4.35;;;14.20;99.90;;;;;;5045442;28;20033;-90
2021/10/02 06:28:31;;;;;;;8.63;3.90;;;14.20;99.90;;;;;;5044595;28;20036;-91
2021/10/02 06:30:57;;;;;;;8.52;4.13;;;14.20;99.90;;;;;;5045380;28;20427;-90
2021/10/02 06:33:23;;;;;;;8.00;4.10;;;14.20;99.90;;;;;;5044888;28;20040;-90
2021/10/02 06:35:48;;;;;;;8.27;4.78;;;14.00;99.90;;;;;;5045195;28;20020;-90
2021/10/02 06:38:15;;;;;;;6.70;4.38;;;14.00;99.90;;;;;;5046817;28;20106;-91
2021/10/02 06:40:43;;;;;;;7.10;4.22;;;14.00;99.90;;;;;;5046721;28;20017;-90
2021/10/02 06:43:10;;;;;;;10.15;4.95;;;14.20;99.90;;;;;;5045804;28;20484;-91
2021/10/02 06:45:36;;;;;;;19.13;13.13;;;14.30;99.90;;;;;;5044118;28;20513;-90
2021/10/02 06:48:02;;;;;;;7.78;5.78;;;14.30;99.90;;;;;;5041566;28;20029;-92
2021/10/02 06:50:28;;;;;;;11.50;6.63;;;14.40;99.90;;;;;;5041752;28;20029;-90
2021/10/02 06:52:55;;;;;;;8.55;5.95;;;14.40;99.90;;;;;;5041095;28;20036;-92
2021/10/02 06:55:21;;;;;;;7.00;5.10;;;14.40;99.90;;;;;;5039906;28;20107;-92
2021/10/02 06:57:47;;;;;;;9.95;5.80;;;14.40;99.90;;;;;;5039653;28;20028;-92
2021/10/02 07:00:13;;;;;;;11.82;6.47;;;14.50;99.90;;;;;;5039067;28;20021;-91
2021/10/02 07:02:43;;;;;;;9.60;5.70;;;14.50;99.90;;;;;;5038162;28;20025;-91
2021/10/02 07:05:10;;;;;;;7.85;5.38;;;14.40;99.90;;;;;;5038903;28;20461;-91
2021/10/02 07:07:36;;;;;;;6.20;4.68;;;14.20;99.90;;;;;;5039045;28;20541;-91
2021/10/02 07:10:04;;;;;;;8.35;4.35;;;14.50;99.90;;;;;;5040081;28;20029;-90
2021/10/02 07:12:30;;;;;;;5.30;4.07;;;14.70;99.90;;;;;;5041213;28;20028;-91
2021/10/02 07:14:55;;;;;;;7.47;4.82;;;14.70;99.90;;;;;;5039313;28;20033;-92
2021/10/02 07:17:21;;;;;;;10.50;6.93;;;14.70;99.90;;;;;;5041306;28;20389;-91
2021/10/02 07:19:47;;;;;;;13.13;7.43;;;14.80;99.90;;;;;;5039472;28;20024;-91
2021/10/02 07:22:13;;;;;;;10.15;6.13;;;14.80;99.90;;;;;;5039562;28;20021;-91
2021/10/02 07:24:39;;;;;;;12.82;7.22;;;14.80;99.90;;;;;;5039330;28;20053;-91
2021/10/02 07:27:05;;;;;;;7.70;5.38;;;14.80;99.90;;;;;;5039425;28;20053;-93
2021/10/02 07:29:31;;;;;;;16.15;8.63;;;14.90;99.90;;;;;;5041080;28;20021;-92
2021/10/02 07:31:57;;;;;;;6.43;4.80;;;14.90;99.90;;;;;;5039662;28;20033;-92
2021/10/02 07:34:23;;;;;;;14.23;7.72;;;14.80;99.90;;;;;;5038864;28;20061;-92
2021/10/02 07:36:49;;;;;;;16.63;9.02;;;15.00;99.90;;;;;;5037048;28;20397;-91
2021/10/02 07:39:15;;;;;;;10.18;6.65;;;15.30;99.90;;;;;;5038160;28;20021;-90
2021/10/02 07:41:43;;;;;;;17.88;7.70;;;15.40;99.90;;;;;;5038516;28;20017;-91
2021/10/02 07:44:11;;;;;;;8.25;4.95;;;15.50;99.90;;;;;;5038199;28;20041;-89
2021/10/02 07:46:39;;;;;;;7.22;4.50;;;15.60;99.90;;;;;;5038166;28;20143;-91
2021/10/02 07:49:05;;;;;;;9.23;3.90;;;15.70;99.90;;;;;;5038012;28;20388;-91
2021/10/02 07:51:31;;;;;;;8.25;4.03;;;15.60;99.90;;;;;;5036512;28;20021;-90
2021/10/02 07:53:57;;;;;;;5.93;3.60;;;15.80;99.90;;;;;;5054401;28;20029;-90
2021/10/02 07:56:23;;;;;;;7.32;3.95;;;15.90;99.90;;;;;;5036524;28;20129;-91
2021/10/02 07:58:51;;;;;;;9.25;3.65;;;15.90;99.90;;;;;;5054416;28;20121;-92
2021/10/02 08:01:18;;;;;;;9.15;3.60;;;16.00;99.90;;;;;;5036793;28;20056;-91
2021/10/02 08:03:44;;;;;;;5.50;3.20;;;16.10;99.90;;;;;;5036692;28;20079;-91
2021/10/02 08:06:10;;;;;;;6.95;3.30;;;16.40;99.90;;;;;;5036850;28;20416;-93
2021/10/02 08:08:36;;;;;;;7.00;3.55;;;16.40;99.90;;;;;;5036573;28;20112;-91
2021/10/02 08:11:05;;;;;;;8.07;3.45;;;16.40;99.90;;;;;;5037537;28;20059;-90
2021/10/02 08:13:31;;;;;;;5.53;3.45;;;16.20;99.90;;;;;;5039994;28;20392;-91
2021/10/02 08:15:59;;;;;;;4.70;2.75;;;16.40;99.90;;;;;;5026639;28;20029;-92
2021/10/02 08:18:29;;;;;;;5.78;3.05;;;16.50;99.90;;;;;;5049030;28;20021;-90
2021/10/02 08:20:57;;;;;;;4.40;2.55;;;16.60;99.90;;;;;;5047102;28;20048;-89
2021/10/02 08:23:25;;;;;;;5.15;2.47;;;16.60;99.90;;;;;;5054993;28;20021;-90
2021/10/02 08:25:53;;;;;;;5.88;3.20;;;16.50;99.90;;;;;;5059284;28;20056;-90
2021/10/02 08:28:19;;;;;;;4.55;3.00;;;16.70;99.90;;;;;;5045433;28;20091;-91
2021/10/02 08:30:46;;;;;;;4.38;2.65;;;16.80;99.90;;;;;;5040764;28;20075;-91
2021/10/02 08:33:12;;;;;;;5.40;2.80;;;17.10;99.90;;;;;;5040345;28;20032;-92
2021/10/02 08:35:42;;;;;;;6.18;2.97;;;17.20;99.90;;;;;;5040550;28;20024;-90
2021/10/02 08:38:09;;;;;;;4.72;2.55;;;17.40;99.90;;;;;;5040352;28;20429;-90
2021/10/02 08:40:35;;;;;;;4.55;2.42;;;17.60;99.90;;;;;;5041388;28;20388;-91
2021/10/02 08:43:02;;;;;;;3.70;2.55;;;17.90;99.90;;;;;;5044653;28;20024;-90
2021/10/02 08:45:30;;;;;;;5.53;2.65;;;17.70;99.90;;;;;;5042690;28;20025;-89
2021/10/02 08:47:57;;;;;;;5.57;2.70;;;17.70;99.90;;;;;;5041571;28;20039;-92
2021/10/02 08:50:26;;;;;;;7.57;2.50;;;17.90;99.90;;;;;;5041582;28;20112;-93
2021/10/02 08:52:54;;;;;;;8.60;2.45;;;18.00;99.90;;;;;;5040397;28;20064;-91
2021/10/02 08:55:21;;;;;;;6.28;2.00;;;18.10;99.90;;;;;;5040020;28;20024;-89
2021/10/02 08:57:49;;;;;;;3.95;2.70;;;18.20;99.90;;;;;;5039855;28;20021;-92
2021/10/02 09:00:21;;;;;;;6.45;2.75;;;18.30;99.90;;;;;;5039622;28;20056;-91
2021/10/02 09:02:48;;;;;;;4.95;2.67;;;18.50;99.90;;;;;;5040397;28;20440;-92
2021/10/02 09:05:15;;;;;;;3.85;2.47;;;18.60;99.90;;;;;;5039708;28;20025;-92
2021/10/02 09:07:40;;;;;;;6.47;2.33;;;18.50;99.90;;;;;;5039917;28;20021;-91
2021/10/02 09:10:10;;;;;;;2.97;2.28;;;18.60;99.90;;;;;;5039626;28;20055;-91
2021/10/02 09:12:38;;;;;;;6.72;2.40;;;18.60;99.90;;;;;;5039541;28;20094;-90
2021/10/02 09:15:05;;;;;;;5.55;2.80;;;18.70;99.90;;;;;;5039973;28;20025;-92
2021/10/02 09:17:31;;;;;;;3.88;2.20;;;18.80;99.90;;;;;;5039037;28;20017;-91
2021/10/02 09:19:58;;;;;;;4.15;2.38;;;19.20;99.90;;;;;;5039745;28;20031;-91
2021/10/02 09:22:24;;;;;;;3.72;2.10;;;19.30;99.90;;;;;;5040161;28;20066;-90
2021/10/02 09:24:52;;;;;;;4.57;2.53;;;19.40;99.90;;;;;;5038916;28;20021;-92
2021/10/02 09:27:23;;;;;;;2.95;1.58;;;19.60;99.90;;;;;;5040257;28;20025;-92
2021/10/02 09:29:51;;;;;;;4.70;2.38;;;19.70;99.90;;;;;;5040097;28;20475;-90
2021/10/02 09:32:19;;;;;;;6.55;2.15;;;19.60;99.90;;;;;;5039307;28;20025;-91
2021/10/02 09:34:55;;;;;;;3.47;1.92;;;19.70;99.90;;;;;;5039572;28;20074;-89
2021/10/02 09:37:33;;;;;;;3.40;2.15;;;19.60;99.90;;;;;;5056381;28;20087;-90
2021/10/02 09:40:03;;;;;;;6.28;2.35;;;19.70;99.90;;;;;;5056261;28;20017;-90
2021/10/02 09:42:32;;;;;;;5.10;2.20;;;19.50;99.90;;;;;;5039122;28;20024;-89
2021/10/02 09:45:00;;;;;;;3.67;2.10;;;19.50;99.90;;;;;;5038061;28;20396;-84
2021/10/02 09:47:29;;;;;;;6.88;1.95;;;19.90;99.90;;;;;;5038063;28;20025;-90
2021/10/02 09:49:55;;;;;;;6.30;2.10;;;20.20;99.90;;;;;;5039591;28;20036;-90
2021/10/02 09:52:29;;;;;;;6.07;2.50;;;20.20;99.90;;;;;;5056715;28;20021;-89
2021/10/02 09:54:55;;;;;;;;;;;20.30;99.90;;;;;;5039590;28;20021;-85
2021/10/02 09:57:21;;;;;;;3.63;2.17;;;20.90;99.90;;;;;;5039657;28;19967;-91
2021/10/02 09:59:47;;;;;;;4.30;2.05;;;21.10;99.90;;;;;;5039175;28;20432;-91
2021/10/02 10:02:25;;;;;;;5.85;2.40;;;21.20;99.90;;;;;;5040271;28;20025;-88
2021/10/02 10:04:55;;;;;;;3.95;1.90;;;21.20;99.90;;;;;;5040715;28;20067;-91
2021/10/02 10:07:22;;;;;;;8.30;2.20;;;21.20;99.90;;;;;;5038187;28;20071;-89
2021/10/02 10:10:05;;;;;;;3.92;2.13;;;21.10;99.90;;;;;;5038319;28;20031;-89
2021/10/02 10:12:31;;;;;;;3.92;1.95;;;21.10;99.90;;;;;;5056311;28;20103;-90
2021/10/02 10:14:57;;;;;;;3.97;2.47;;;20.90;99.90;;;;;;5037931;28;20480;-91
2021/10/02 10:17:24;;;;;;;3.38;2.00;;;21.50;99.90;;;;;;5056245;28;20032;-91
2021/10/02 10:20:09;;;;;;;4.78;1.95;;;21.90;99.90;;;;;;5038337;28;20028;-87
2021/10/02 10:22:36;;;;;;;5.50;2.10;;;22.30;99.90;;;;;;5056605;28;20028;-89
2021/10/02 10:25:10;;;;;;;4.35;2.13;;;22.50;99.90;;;;;;5037877;28;20079;-91
2021/10/02 10:27:35;;;;;;;5.60;2.05;;;21.90;99.90;;;;;;5038399;28;20443;-91
2021/10/02 10:30:22;;;;;;;3.47;1.70;;;22.10;99.90;;;;;;5040405;28;20021;-90
2021/10/02 10:32:59;;;;;;;6.00;2.10;;;22.20;99.90;;;;;;5048168;28;20033;-90
2021/10/02 10:35:37;;;;;;;4.13;1.83;;;22.90;99.90;;;;;;5049088;28;20032;-92
2021/10/02 10:38:05;;;;;;;2.45;1.88;;;22.90;99.90;;;;;;5054607;28;20017;-89
2021/10/02 10:40:31;;;;;;;5.68;2.00;;;23.30;99.90;;;;;;5028803;28;20116;-89
2021/10/02 10:42:57;;;;;;;5.78;2.00;;;23.20;99.90;;;;;;5039503;28;20028;-90
2021/10/02 10:45:23;;;;;;;3.72;1.80;;;23.10;99.90;;;;;;5040075;28;20461;-91
2021/10/02 10:47:50;;;;;;;4.47;2.10;;;23.50;99.90;;;;;;5041041;28;20032;-90
2021/10/02 10:50:16;;;;;;;3.67;1.85;;;24.40;99.90;;;;;;5037191;28;20033;-90
2021/10/02 10:52:44;;;;;;;6.95;3.22;;;24.80;99.90;;;;;;5038317;28;20025;-89
2021/10/02 10:55:18;;;;;;;5.18;2.60;;;24.20;99.90;;;;;;5038019;28;20029;-90
2021/10/02 10:57:47;;;;;;;;;;;24.20;99.90;;;;;;5039917;28;20021;-89
2021/10/02 11:00:19;;;;;;;8.25;2.15;;;23.50;99.90;;;;;;5043779;28;19889;-89
2021/10/02 11:02:54;;;;;;;3.42;1.85;;;24.20;99.90;;;;;;5040608;28;20021;-89
2021/10/02 11:05:35;;;;;;;3.60;2.00;;;24.20;99.90;;;;;;5042863;28;20025;-90
2021/10/02 11:08:12;;;;;;;3.20;2.10;;;24.40;99.90;;;;;;5040541;28;20032;-89
2021/10/02 11:10:55;;;;;;;6.10;2.50;;;27.70;98.70;;;;;;5042350;28;20029;-88
2021/10/02 11:13:46;;;;;;;3.00;2.13;;;24.10;98.80;;;;;;5039477;28;20028;-88
2021/10/02 11:16:38;;;;;;;7.80;2.72;;;24.80;97.60;;;;;;5039350;28;20111;-90
2021/10/02 11:19:27;;;;;;;5.82;1.83;;;24.60;97.30;;;;;;5037964;28;20071;-89
2021/10/02 11:22:01;;;;;;;5.60;2.15;;;24.80;97.70;;;;;;5037277;28;20111;-93
2021/10/02 11:24:46;;;;;;;4.10;2.40;;;25.50;96.90;;;;;;5037214;28;20044;-88
2021/10/02 11:27:22;;;;;;;5.53;2.30;;;25.60;96.10;;;;;;5037311;28;20437;-89
2021/10/02 11:29:49;;;;;;;4.03;2.20;;;25.80;96.00;;;;;;5055241;28;20481;-91
2021/10/02 11:32:19;;;;;;;3.03;1.70;;;26.20;94.70;;;;;;5038246;28;20075;-89
2021/10/02 11:35:29;;;;;;;5.53;2.03;;;26.30;94.90;;;;;;5039456;28;20096;-91
2021/10/02 11:38:35;;;;;;;2.72;1.88;;;25.40;94.90;;;;;;4993854;28;20037;-91
2021/10/02 11:41:00;;;;;;;;;;;25.30;95.60;;;;;;5039582;28;20132;-90
2021/10/02 11:43:28;;;;;;;8.77;2.33;;;25.00;95.10;;;;;;5039937;28;19960;-92
2021/10/02 11:45:58;;;;;;;6.05;1.75;;;25.20;94.70;;;;;;5037781;28;20047;-90
2021/10/02 11:48:40;;;;;;;2.92;1.65;;;25.80;95.50;;;;;;5037187;28;20032;-91
2021/10/02 11:51:16;;;;;;;4.45;2.05;;;26.10;94.30;;;;;;5038325;28;20025;-91
2021/10/02 11:53:53;;;;;;;4.30;1.98;;;25.60;94.50;;;;;;5038815;28;20388;-89
2021/10/02 11:56:24;;;;;;;3.15;1.95;;;26.40;94.40;;;;;;5040330;28;20443;-91
2021/10/02 11:58:56;;;;;;;6.22;2.30;;;27.70;92.40;;;;;;5038897;28;20148;-91
2021/10/02 12:01:27;;;;;;;5.65;1.95;;;27.10;91.40;;;;;;5037292;28;20027;-89
2021/10/02 12:04:02;;;;;;;2.65;1.80;;;26.90;92.00;;;;;;5039605;28;20017;-94
2021/10/02 12:06:29;;;;;;;4.18;2.40;;;27.20;91.40;;;;;;5043204;28;20059;-90
2021/10/02 12:08:56;;;;;;;4.32;2.08;;;27.20;91.60;;;;;;5043748;28;20051;-92
2021/10/02 12:11:22;;;;;;;3.20;1.88;;;27.40;90.50;;;;;;5062533;28;20017;-92
2021/10/02 12:13:51;;;;;;;2.83;1.70;;;27.30;90.00;;;;;;5041746;28;20036;-91
2021/10/02 12:16:23;;;;;;;5.43;2.28;;;27.60;90.20;;;;;;5041615;28;20028;-91
2021/10/02 12:19:00;;;;;;;2.25;1.80;;;27.80;90.30;;;;;;5039462;28;20025;-90
2021/10/02 12:21:32;;;;;;;5.00;1.80;;;28.30;89.90;;;;;;5044014;28;20060;-91
2021/10/02 12:24:32;;;;;;;3.67;1.75;;;27.90;89.10;;;;;;5042668;28;20041;-89
2021/10/02 12:27:08;;;;;;;7.13;2.15;;;26.30;90.00;;;;;;4990259;28;20492;-92
2021/10/02 12:29:44;;;;;;;3.38;1.95;;;24.70;92.40;;;;;;5045328;28;20071;-93
2021/10/02 12:32:15;;;;;;;6.22;2.15;;;24.70;93.10;;;;;;5043189;28;20028;-93
2021/10/02 12:34:47;;;;;;;3.42;2.10;;;25.30;93.00;;;;;;5038236;28;20079;-92
2021/10/02 12:37:14;;;;;;;3.63;1.85;;;25.80;92.40;;;;;;5038864;28;20377;-90
2021/10/02 12:39:47;;;;;;;5.13;1.80;;;26.90;91.30;;;;;;5039178;28;20369;-93
2021/10/02 12:42:37;;;;;;;3.80;1.73;;;28.00;90.00;;;;;;5043508;28;20070;-92
2021/10/02 12:45:29;;;;;;;3.88;1.90;;;27.70;88.10;;;;;;5050500;28;20041;-92
2021/10/02 12:48:01;;;;;;;2.80;2.05;;;26.70;90.70;;;;;;5057536;28;20020;-92
2021/10/02 12:50:36;;;;;;;2.60;1.85;;;27.80;89.70;;;;;;5056071;28;20092;-90
2021/10/02 12:53:02;;;;;;;8.35;2.00;;;27.60;88.50;;;;;;5038561;28;20021;-90
2021/10/02 12:55:30;;;;;;;4.18;1.80;;;27.70;88.40;;;;;;5038007;28;20032;-92
2021/10/02 12:57:55;;;;;;;3.55;2.05;;;27.90;87.90;;;;;;5038761;28;20500;-90
2021/10/02 13:00:30;;;;;;;6.15;2.20;;;28.20;88.20;;;;;;5039845;28;20021;-90
2021/10/02 13:03:00;;;;;;;7.05;2.28;;;27.90;88.00;;;;;;5039950;28;20052;-90
2021/10/02 13:05:37;;;;;;;2.97;2.10;;;28.50;86.90;;;;;;5040208;28;20139;-89
2021/10/02 13:08:05;;;;;;;4.72;1.77;;;27.60;87.30;;;;;;5039763;28;20542;-90
2021/10/02 13:10:31;;;;;;;3.70;1.83;;;28.00;88.10;;;;;;5039537;28;20480;-88
2021/10/02 13:13:05;;;;;;;10.50;2.08;;;27.00;88.20;;;;;;5042124;28;20029;-91
2021/10/02 13:15:38;;;;;;;6.22;2.05;;;27.30;87.80;;;;;;5039682;28;20175;-90
2021/10/02 13:18:17;;;;;;;3.70;1.90;;;27.90;87.20;;;;;;5039306;28;20436;-90
2021/10/02 13:20:46;;;;;;;4.82;1.70;;;28.20;85.60;;;;;;5040932;28;20083;-92
2021/10/02 13:23:15;;;;;;;4.03;2.13;;;28.50;84.90;;;;;;5041365;28;20044;-90
2021/10/02 13:25:55;;;;;;;6.10;1.90;;;28.70;84.30;;;;;;5042024;28;20021;-93
2021/10/02 13:28:23;;;;;;;4.82;2.25;;;28.20;84.90;;;;;;5040434;28;20048;-89
2021/10/02 13:30:49;;;;;;;5.60;1.85;;;29.20;82.60;;;;;;5040435;28;20025;-92
2021/10/02 13:33:16;;;;;;;2.22;1.88;;;29.20;82.60;;;;;;5039888;28;20040;-90
2021/10/02 13:35:56;;;;;;;2.53;1.50;;;28.90;81.90;;;;;;5039337;28;20051;-91
2021/10/02 13:38:35;;;;;;;5.68;1.90;;;29.20;82.40;;;;;;5039720;28;20074;-90
2021/10/02 13:41:05;;;;;;;3.65;2.15;;;29.10;82.80;;;;;;5039431;28;20025;-93
2021/10/02 13:43:30;;;;;;;3.40;1.95;;;28.60;82.90;;;;;;5038781;28;20037;-93
2021/10/02 13:45:56;;;;;;;3.88;2.20;;;29.20;82.70;;;;;;5039487;28;20086;-92
2021/10/02 13:48:27;;;;;;;4.20;1.95;;;28.50;83.00;;;;;;5038376;28;20025;-93
2021/10/02 13:50:54;;;;;;;3.28;1.90;;;28.60;83.60;;;;;;5038731;28;20045;-92
2021/10/02 13:53:20;;;;;;;3.40;2.03;;;28.90;83.50;;;;;;5040070;28;20133;-92
2021/10/02 13:55:46;;;;;;;4.15;1.80;;;28.90;83.20;;;;;;5038845;28;20136;-92